Portada
METAR-TAF:

METAR-TAF

Aeroports :

Beauvechain, Bèlgica

latitud: 50-45N, longitud: 004-46E, altitud: 105 m

Observació

L'informe es va fer fa 22 minuts, a les 22:25 UTC
Vent 7 kt del Sud/Sud-Est
Temperatura 19°C
Humitat 68%
Pressió 1013 hPa
Visibilitat 10 km o més

METAR: EBBE 192225Z AUTO 16007KT 9999 NCD 19/13 Q1013 BLU

Hora: 00:47 (22:47 UTC)

Pronòstic

L'informe es va fer fa 7 hores i 6 minuts, a les 15:41 UTC
Pronòstic vàlid del 19 a les 19 UTC al 20 a les 07 UTC
Vent 10 kt del Sud-Oest
Visibilitat 10 km o més
Núvols disperses a una alçada de 7000 ft
Cel ennuvolat a una alçada de 20000 ft
Evolucionant progressivament
l' 20 a les 00 UTC al 20 a les 02 UTC
Vent 5 kt del Sud/Sud-Est
Núvols disperses a una alçada de 4000 ft
Cel ennuvolat a una alçada de 18000 ft

TAF: EBBE 191541Z 1919/2007 23010KT 9999 SCT070 BKN200 BECMG 2000/2002 16005KT SCT040 BKN180

Observacions i pronòstics meteorològics de més de 4000 aeroports (METAR i TAF).

Les estacions disponibles són els punts grocs i vermells al mapa.

Posi el ratolí al punt desitjat per veure el nom de l'estació.

Feu clic per veure les observacions i els pronòstics meteorològics.

Per canviar el mapa: feu clic els botons verds amb una creu de color negre per apropar; al botó verd amb un guió per allunyar la imatge; o en les fletxes verdes per a mapes adjacents.


METAR-TAF: